WEATHER DATA

YESTERDAY
Time Temp. Dewp. Hum. Wind dir Wind speed Wind gust Bar. 1h Prec. 24h Prec.
00:04 4.6 3.7 94 225 0.3 0.8 1019.9 0.0000 0.0000
00:15 4.5 3.6 94 245 0.6 1.1 1019.9 0.0000 0.0000
00:25 4.5 3.8 95 240 0.6 0.8 1019.8 0.0000 0.0000
00:35 4.5 3.8 95 210 0.3 0.8 1019.8 0.0000 0.0000
00:45 4.4 3.8 96 240 0.6 1.1 1019.7 0.0000 0.0000
00:55 4.3 3.7 96 225 0.3 0.8 1019.9 0.0000 0.0000
01:05 4.3 3.7 96 233 0.6 1.1 1019.7 0.0000 0.0000
01:15 4.1 3.5 96 236 0.6 0.8 1019.7 0.0000 0.0000
01:25 3.9 3.3 96 233 0.6 0.8 1019.6 0.0000 0.0000
01:33 3.7 3 95 232 0.6 1.1 1019.6 0.0000 0.0000
01:43 3.5 2.8 95 228 0.6 0.8 1019.4 0.0000 0.0000
01:58 3.2 2.5 95 230 0.6 1.1 1019.3 0.0000 0.0000
02:15 2.9 2.2 95 235 0.6 1.1 1019.2 0.0000 0.0000
02:24 2.7 2 95 270 0.3 0.8 1019.2 0.0000 0.0000
02:35 2.5 1.8 95 247 0.6 1.1 1019.3 0.0000 0.0000
02:45 2.4 1.7 95 236 0.6 1.1 1019.1 0.0000 0.0000
02:55 2.3 1.7 96 249 0.6 1.1 1018.9 0.0000 0.0000
03:05 2.1 1.5 96 270 0.3 0.8 1018.9 0.0000 0.0000
03:15 2 1.4 96 229 0.3 0.8 1019.1 0.0000 0.0000
03:25 1.9 1.3 96 247 0.6 0.8 1018.9 0.0000 0.0000
03:35 1.8 1.2 96 248 0.6 1.1 1018.7 0.0000 0.0000
03:45 1.7 1.1 96 215 0.3 0.8 1018.7 0.0000 0.0000
03:55 1.6 1 96 250 0.6 1.1 1018.6 0.0000 0.0000
04:05 1.6 1 96 247 0.6 1.1 1018.5 0.0000 0.0000
04:15 1.5 0.9 96 246 0.6 1.1 1018.5 0.0000 0.0000
04:25 1.5 1.1 97 251 0.6 1.1 1018.4 0.0000 0.0000
04:35 1.5 1.1 97 195 0.3 0.8 1018.5 0.0000 0.0000
04:45 1.5 1.1 97 212 0.3 0.6 1018.4 0.0000 0.0000
04:56 1.4 1 97 270 0.3 0.8 1018.4 0.0000 0.0000
05:05 1.4 1 97 270 0.3 0.8 1018.3 0.0000 0.0000
05:15 1.3 0.9 97 252 0.6 1.1 1018.3 0.0000 0.0000
05:26 1.3 0.9 97 270 0.3 0.8 1018.2 0.0000 0.0000
05:36 1.2 0.8 97 270 0.6 1.1 1018.3 0.0000 0.0000
05:45 1.2 0.8 97 218 0.3 0.8 1018.4 0.0000 0.0000
05:55 1.1 0.7 97 270 0.3 0.8 1018.3 0.0000 0.0000
06:06 1.1 0.7 97 237 0.3 0.8 1018.3 0.0000 0.0000
06:16 1.1 0.7 97 270 0.3 0.8 1018.3 0.0000 0.0000
06:25 1 0.6 97 240 0.3 1.1 1018.2 0.0000 0.0000
06:36 0.9 0.6 98 241 0.6 1.1 1018.2 0.0000 0.0000
06:46 0.8 0.4 97 231 0.3 0.8 1018.1 0.0000 0.0000
06:56 0.8 0.4 97 234 0.6 1.1 1018.2 0.0000 0.0000
07:06 0.7 0.4 98 250 0.6 1.1 1018 0.0000 0.0000
07:16 0.6 0.2 97 228 0.3 0.8 1018.1 0.0000 0.0000
07:26 0.6 0.3 98 270 0.3 1.1 1018 0.0000 0.0000
07:36 0.5 0.2 98 239 0.6 1.1 1017.9 0.0000 0.0000
07:46 0.5 0.2 98 270 0.3 0.6 1017.8 0.0000 0.0000
07:56 0.5 0.2 98 0 0.6 1017.9 0.0000 0.0000
08:06 0.5 0.2 98 270 0.3 0.6 1017.9 0.0000 0.0000
08:16 0.5 0.2 98 0 0.6 1017.7 0.0000 0.0000
08:26 0.5 0.2 98 161 0.3 0.6 1017.7 0.0000 0.0000
08:36 0.6 0.5 99 195 0.3 1.1 1017.8 0.0000 0.0000
08:46 0.7 0.6 99 0 0.6 1017.7 0.0000 0.0000
08:57 0.8 0.7 99 90 0.3 0.6 1017.7 0.0000 0.0000
09:06 0.9 0.8 99 0.6 1.7 1017.7 0.0000 0.0000
09:16 1.1 1 99 300 1.9 5.8 1017.7 0.0000 0.0000
09:26 1.4 1.4 100 288 2.2 3.9 1017.6 0.0000 0.0000
09:36 1.7 1.7 100 270 3.1 4.7 1017.7 0.0000 0.0000
09:46 2.1 2.1 100 8 3.1 4.2 1017.6 0.0000 0.0000
09:56 2.5 2.5 100 340 2.8 4.4 1017.6 0.0000 0.0000
10:06 3 3 100 302 1.7 2.8 1017.5 0.0000 0.0000
10:09 3.2 3.2 100 338 3.9 5.8 1017.6 0.0000 0.0000
10:20 3.9 3.8 99 16 1.9 7.5 1017.4 0.0000 0.0000
10:30 4.4 3.8 96 58 0.6 1.1 1017.3 0.0000 0.0000
10:39 5 3.7 91 21 0.8 1.7 1017 0.0000 0.0000
10:49 5.5 3.3 86 13 1.1 2.2 1016.9 0.0000 0.0000
11:00 6 3.5 84 13 0.8 2.2 1016.5 0.0000 0.0000
11:10 6.3 3.1 80 340 1.1 2.5 1016.5 0.0000 0.0000
11:19 6.6 3.4 80 7 1.1 2.5 1016.5 0.0000 0.0000
11:30 6.8 3.2 78 348 1.1 2.5 1016.1 0.0000 0.0000
11:40 7 2.7 74 339 1.4 2.8 1015.8 0.0000 0.0000
11:49 7.1 2.8 74 4 0.8 2.5 1015.8 0.0000 0.0000
12:00 7.3 2.4 71 335 1.1 2.2 1015.6 0.0000 0.0000
12:10 7.4 2.3 70 351 1.4 3.1 1015.4 0.0000 0.0000
12:20 7.6 2.5 70 358 0.8 1.9 1015.4 0.0000 0.0000
12:29 7.6 2.5 70 344 0.8 1.9 1015.2 0.0000 0.0000
12:40 7.7 2.6 70 336 1.1 2.2 1015.1 0.0000 0.0000
12:50 7.8 2.5 69 338 0.8 1.9 1014.9 0.0000 0.0000
13:00 7.8 2.1 67 321 1.1 2.8 1014.8 0.0000 0.0000
13:15 7.8 1.9 66 326 1.1 2.8 1014.7 0.0000 0.0000
13:25 7.7 2 67 316 1.1 2.8 1014.3 0.0000 0.0000
13:35 7.8 2.3 68 345 1.4 4.2 1014.3 0.0000 0.0000
13:45 7.7 1.8 66 327 1.1 2.2 1014.1 0.0000 0.0000
13:55 7.7 2.2 68 339 0.8 2.5 1014.1 0.0000 0.0000
14:05 7.7 2 67 347 1.1 2.5 1014.1 0.0000 0.0000
14:15 7.7 2.2 68 347 0.8 1.9 1013.9 0.0000 0.0000
14:26 7.7 1.8 66 349 1.4 2.5 1013.9 0.0000 0.0000
14:35 7.6 1.9 67 353 1.1 2.5 1013.8 0.0000 0.0000
14:45 7.6 2.1 68 337 1.1 2.8 1013.8 0.0000 0.0000
14:56 7.4 0.8 63 331 1.1 3.6 1013.7 0.0000 0.0000
15:06 7.3 0.7 63 338 1.4 2.8 1013.5 0.0000 0.0000
15:16 7.1 0.5 63 333 0.8 1.9 1013.4 0.0000 0.0000
15:25 6.9 0.6 64 336 0.8 2.2 1013.3 0.0000 0.0000
15:36 6.7 1 67 321 0.6 2.2 1013.2 0.0000 0.0000
15:46 6.5 1 68 1 0.6 1.4 1013 0.0000 0.0000
15:56 6.3 1.2 70 318 0.6 1.1 1013 0.0000 0.0000
16:06 6 1.3 72 303 0.3 0.8 1012.9 0.0000 0.0000
16:16 5.7 1.4 74 315 0.3 0.6 1012.8 0.0000 0.0000
16:26 5.2 1.3 76 270 0.3 0.6 1012.8 0.0000 0.0000
16:36 4.8 1.3 78 0 0.3 1012.6 0.0000 0.0000
16:46 4.5 1.4 80 270 0.3 0.8 1012.7 0.0000 0.0000
16:56 4.1 1.1 81 270 0.3 0.6 1012.6 0.0000 0.0000
17:06 3.6 0.8 82 270 0.3 0.8 1012.6 0.0000 0.0000
17:17 3.2 0.6 83 270 0.3 0.8 1012.6 0.0000 0.0000
17:27 3 0.7 85 270 0.6 0.8 1012.3 0.0000 0.0000
17:29 2.9 0.6 85 270 0.3 0.8 1012.4 0.0000 0.0000
17:39 2.6 0.3 85 270 0.3 0.8 1012.3 0.0000 0.0000
17:49 2.3 0.2 86 270 0.6 0.8 1012.3 0.0000 0.0000
17:59 2 -0.1 86 270 0.3 0.6 1012.3 0.0000 0.0000
18:09 1.8 -0.1 87 270 0.6 1.1 1012.3 0.0000 0.0000
18:19 1.6 -0.1 88 270 0.3 0.8 1012.1 0.0000 0.0000
18:29 1.4 -0.3 88 270 0.3 0.8 1012 0.0000 0.0000
18:34 1.3 -0.4 88 270 0.3 0.6 1011.9 0.0000 0.0000
18:53 0.9 -0.6 89 270 0.3 0.8 1011.8 0.0000 0.0000
19:03 0.7 -0.7 90 270 0.3 0.8 1011.7 0.0000 0.0000
19:14 0.6 -0.7 90 270 0.3 0.6 1011.5 0.0000 0.0000
19:24 0.5 -0.8 90 270 0.3 0.6 1011.5 0.0000 0.0000
19:34 0.4 -0.8 91 270 0.3 0.6 1011.4 0.0000 0.0000
19:45 0.2 -1 91 270 0.3 1.1 1011.3 0.0000 0.0000
19:55 0.1 -1.1 91 270 0.3 1.1 1011.4 0.0000 0.0000
20:05 0 -1.1 91 135 0.3 0.8 1011.3 0.0000 0.0000
20:15 0 -1.1 91 297 0.6 1.1 1011.1 0.0000 0.0000
20:25 -0.1 -1.1 92 270 0.3 0.8 1011 0.0000 0.0000
20:31 -0.1 -1.1 92 270 0.3 1.1 1011 0.0000 0.0000
20:40 -0.2 -1.2 92 210 0.3 0.8 1010.9 0.0000 0.0000
20:50 -0.2 -1.2 92 270 0.6 1.4 1010.8 0.0000 0.0000
21:01 -0.3 -1.3 92 270 0.3 1.4 1010.7 0.0000 0.0000
21:11 -0.3 -1.3 92 270 0.3 0.6 1010.5 0.0000 0.0000
21:20 -0.4 -1.4 92 270 0.3 0.8 1010.4 0.0000 0.0000
21:30 -0.4 -1.4 92 270 0.3 0.8 1010.4 0.0000 0.0000
21:41 -0.5 -1.5 92 270 0.3 1.1 1010.4 0.0000 0.0000
21:51 -0.6 -1.6 92 270 0.3 1.1 1010.3 0.0000 0.0000
22:00 -0.7 -1.7 92 306 0.3 1.1 1010.2 0.0000 0.0000
22:11 -0.7 -1.6 93 270 0.3 0.8 1010 0.0000 0.0000
22:21 -0.7 -1.6 93 270 0.3 0.6 1009.9 0.0000 0.0000
22:31 -0.8 -1.7 93 215 0.3 0.6 1009.8 0.0000 0.0000
22:41 -0.8 -1.7 93 225 0.3 0.8 1009.9 0.0000 0.0000
22:51 -0.9 -1.8 93 302 0.3 0.6 1009.6 0.0000 0.0000
23:01 -1 -1.9 93 270 0.6 1.1 1009.7 0.0000 0.0000
23:11 -1 -1.7 94 206 0.3 0.6 1009.5 0.0000 0.0000
23:22 -1 -1.7 94 186 0.3 1.1 1009.6 0.0000 0.0000
23:33 -1.1 -1.8 94 225 0.3 0.6 1009.5 0.0000 0.0000
23:42 -1.1 -1.8 94 180 0.3 0.6 1009.1 0.0000 0.0000
23:52 -1 -1.7 94 270 0.3 1.1 1009 0.0000 0.0000

DAY STATISTIC

2019-12-11
TEMPERATURE
AVERAGE
2.8
HIGH
7.8
12:50
LOW
-1.1
23:33
PRESSURE
AVERAGE
1015.2
HIGH
1019.9
00:04
LOW
1009.0
23:52
DEWPOINT
AVERAGE
1.0
HIGH
3.8
00:25
LOW
-1.9
23:01
HUMIDITY
AVERAGE
88
HIGH
100
09:26
LOW
63
14:56
WIND SPEED
AVERAGE
0.6
HIGH
3.9
10:09
WIND GUST
AVERAGE
1.4
HIGH
7.5
10:20
WIND DIRECTION
PREVAILING
W
37.1%
N
16.8
NE
0.7
E
0.7
SE
0.7
S
3.5
SW
23.8
W
37.1
NW
13.3
PRECIPITATION
RAIN HOUR
0.0
RAIN DAY
0.0
TEMPERATURE (°C)
LOW
-1.1
HIGH
7.8
AVERAGE
2.8
PRESSURE (hpa)
LOW
1009.0
HIGH
1019.9
AVERAGE
1015.2
DEVICE